Terminal Aerodrome Forecast
Issued by NWS

Home | Current Version | Previous Version | Text Only | Print | Product List | Glossary On
Versions: 1 2 3 4 5 6 7 8 9 10 11 12 13 14 15 16 17 18 19 20 21 22 23 24 25 26 27 28 29 30 31
000
FTUS45 KLKN 032320
TAFELY
TAF
KELY 032320Z 0400/0424 02010KT P6SM VCTS BKN090CB BKN180
      TEMPO 0400/0404 P6SM -TSRA SCT040 BKN080CB
     FM040400 18006KT P6SM VCSH FEW080 BKN130
     FM041000 18006KT P6SM BKN130 BKN180
     FM042100 21007KT P6SM -TSRA BKN080CB OVC110=

USA.gov is the U.S. government's official web portal to all federal, state and local government web resources and services.